Time;durP1;ratioP1;P1;durP2;ratioP2;P2;SDS_P1;SDS_P2;PMS_P1;PMS_P2;Temp;Humidity;BMP_temperature;BMP_pressure;BME280_temperature;BME280_humidity;BME280_pressure;Samples;Min_cycle;Max_cycle;Signal;HPM_P1;HPM_P2
2021/04/10 00:02:05;;;;;;;11.07;3.67;;;5.10;99.90;;;;;;5095452;27;20205;-52
2021/04/10 00:04:31;;;;;;;10.13;4.20;;;5.10;99.90;;;;;;5106516;27;20196;-52
2021/04/10 00:06:58;;;;;;;9.83;3.67;;;5.10;99.90;;;;;;5104053;28;20201;-51
2021/04/10 00:09:24;;;;;;;10.10;3.60;;;5.10;99.90;;;;;;5100468;28;20203;-55
2021/04/10 00:11:51;;;;;;;9.13;4.03;;;5.10;99.90;;;;;;5101942;28;20209;-56
2021/04/10 00:14:17;;;;;;;8.77;3.53;;;5.10;99.90;;;;;;5110762;27;20193;-55
2021/04/10 00:16:44;;;;;;;11.83;3.77;;;5.10;99.90;;;;;;5102493;27;20304;-52
2021/04/10 00:19:11;;;;;;;14.63;3.90;;;5.10;99.90;;;;;;5112548;27;20205;-51
2021/04/10 00:21:37;;;;;;;11.47;3.40;;;5.10;99.90;;;;;;5102787;27;20202;-53
2021/04/10 00:24:03;;;;;;;11.17;3.43;;;5.10;99.90;;;;;;5103745;28;20561;-54
2021/04/10 00:26:30;;;;;;;10.10;3.67;;;5.10;99.90;;;;;;5099616;28;20181;-55
2021/04/10 00:28:57;;;;;;;7.97;3.07;;;5.00;99.90;;;;;;5103601;28;20271;-48
2021/04/10 00:31:23;;;;;;;8.93;3.57;;;5.00;99.90;;;;;;5100751;28;20209;-56
2021/04/10 00:33:49;;;;;;;11.63;3.00;;;5.00;99.90;;;;;;5100184;27;20197;-50
2021/04/10 00:36:15;;;;;;;9.47;3.33;;;5.00;99.90;;;;;;5107879;27;20217;-54
2021/04/10 00:38:41;;;;;;;12.27;3.70;;;5.00;99.90;;;;;;5102446;28;20193;-49
2021/04/10 00:41:10;;;;;;;12.33;3.27;;;5.00;99.90;;;;;;5125503;27;20227;-48
2021/04/10 00:43:37;;;;;;;5.43;3.40;;;5.00;99.90;;;;;;5105516;27;20754;-50
2021/04/10 00:46:05;;;;;;;12.00;3.50;;;5.00;99.90;;;;;;5104731;28;20325;-51
2021/04/10 00:48:32;;;;;;;12.17;3.83;;;5.00;99.90;;;;;;5099591;27;20211;-57
2021/04/10 00:50:58;;;;;;;8.00;3.30;;;5.00;99.90;;;;;;5111597;27;20209;-57
2021/04/10 00:53:26;;;;;;;6.07;3.23;;;5.00;99.90;;;;;;5102248;27;20232;-51
2021/04/10 00:55:54;;;;;;;10.07;3.20;;;5.00;99.90;;;;;;5103079;28;20224;-51
2021/04/10 00:58:20;;;;;;;5.97;3.10;;;5.00;99.90;;;;;;5114506;28;20246;-53
2021/04/10 01:00:46;;;;;;;9.33;2.87;;;5.10;99.90;;;;;;5121053;27;20204;-49
2021/04/10 01:03:14;;;;;;;9.13;3.70;;;5.10;99.90;;;;;;5107766;27;20661;-56
2021/04/10 01:05:40;;;;;;;11.87;3.60;;;5.10;99.90;;;;;;5102682;27;20935;-53
2021/04/10 01:08:07;;;;;;;6.63;3.50;;;5.10;99.90;;;;;;5118436;27;20277;-50
2021/04/10 01:10:33;;;;;;;7.10;2.93;;;5.10;99.90;;;;;;5104319;27;20213;-51
2021/04/10 01:13:17;;;;;;;8.67;4.07;;;5.10;99.90;;;;;;5120752;27;20197;-56
2021/04/10 01:15:52;;;;;;;8.77;3.73;;;5.10;99.90;;;;;;5107267;27;20213;-54
2021/04/10 01:18:25;;;;;;;13.03;4.30;;;5.10;99.90;;;;;;5104708;27;20280;-55
2021/04/10 01:21:05;;;;;;;16.03;4.43;;;5.00;99.90;;;;;;5106826;27;20307;-48
2021/04/10 01:23:56;;;;;;;5.30;3.03;;;5.00;99.90;;;;;;5111852;27;20185;-48
2021/04/10 01:26:37;;;;;;;9.30;3.53;;;5.00;99.90;;;;;;5120365;27;20224;-56
2021/04/10 01:29:09;;;;;;;9.30;3.60;;;5.00;99.90;;;;;;5124749;27;20614;-50
2021/04/10 01:31:39;;;;;;;9.17;3.93;;;5.00;99.90;;;;;;5122533;27;20217;-53
2021/04/10 01:34:10;;;;;;;7.73;4.00;;;5.00;99.90;;;;;;5126226;27;20203;-51
2021/04/10 01:36:41;;;;;;;8.53;3.97;;;5.00;99.90;;;;;;5101716;27;20439;-51
2021/04/10 01:39:10;;;;;;;10.53;4.47;;;4.90;99.90;;;;;;5119229;27;20232;-48
2021/04/10 01:41:41;;;;;;;10.53;4.13;;;4.90;99.90;;;;;;5122413;27;20188;-49
2021/04/10 01:44:09;;;;;;;8.07;3.77;;;4.90;99.90;;;;;;5115867;27;20927;-50
2021/04/10 01:46:36;;;;;;;11.23;4.30;;;4.90;99.90;;;;;;5105028;27;20250;-54
2021/04/10 01:49:05;;;;;;;7.73;3.93;;;4.90;99.90;;;;;;5106286;27;20232;-51
2021/04/10 01:51:32;;;;;;;12.27;4.40;;;4.90;99.90;;;;;;5091329;27;20228;-52
2021/04/10 01:53:59;;;;;;;6.17;3.73;;;4.90;99.90;;;;;;5119244;27;20577;-50
2021/04/10 01:56:26;;;;;;;9.40;4.30;;;4.90;99.90;;;;;;5104490;27;20755;-55
2021/04/10 01:58:55;;;;;;;11.00;4.43;;;4.90;99.90;;;;;;5105814;27;20213;-51
2021/04/10 02:01:39;;;;;;;11.90;4.27;;;4.90;99.90;;;;;;5101013;27;20219;-51
2021/04/10 02:04:06;;;;;;;8.30;4.60;;;4.80;99.90;;;;;;5104791;27;20212;-50
2021/04/10 02:06:33;;;;;;;10.23;5.30;;;4.80;99.90;;;;;;5090656;27;20236;-48
2021/04/10 02:09:05;;;;;;;13.80;4.60;;;4.80;99.90;;;;;;5109177;27;20194;-50
2021/04/10 02:11:43;;;;;;;9.47;4.70;;;4.90;99.90;;;;;;5101403;27;20311;-49
2021/04/10 02:14:21;;;;;;;13.57;5.03;;;4.90;99.90;;;;;;5107433;27;20650;-53
2021/04/10 02:16:51;;;;;;;12.40;5.17;;;4.90;99.90;;;;;;5110939;27;20562;-52
2021/04/10 02:19:21;;;;;;;7.17;4.93;;;4.90;99.90;;;;;;5101774;27;20205;-56
2021/04/10 02:21:58;;;;;;;15.70;5.83;;;4.90;99.90;;;;;;5097216;27;20204;-54
2021/04/10 02:24:25;;;;;;;12.33;5.57;;;4.80;99.90;;;;;;5111673;27;20201;-55
2021/04/10 02:26:58;;;;;;;14.27;5.23;;;4.80;99.90;;;;;;5107626;27;20233;-48
2021/04/10 02:29:27;;;;;;;14.10;5.37;;;4.80;99.90;;;;;;5116952;27;20271;-55
2021/04/10 02:32:02;;;;;;;11.90;5.60;;;4.80;99.90;;;;;;5123687;27;20204;-51
2021/04/10 02:34:42;;;;;;;12.73;5.20;;;4.80;99.90;;;;;;5107866;27;20948;-55
2021/04/10 02:37:09;;;;;;;5.97;5.27;;;4.80;99.90;;;;;;5103987;28;20283;-51
2021/04/10 02:39:41;;;;;;;12.53;5.47;;;4.80;99.90;;;;;;5098092;27;20221;-54
2021/04/10 02:42:11;;;;;;;12.97;4.53;;;4.70;99.90;;;;;;5104868;27;20286;-55
2021/04/10 02:44:45;;;;;;;13.73;5.07;;;4.70;99.90;;;;;;5102102;27;20193;-51
2021/04/10 02:47:16;;;;;;;12.13;4.97;;;4.70;99.90;;;;;;5108426;27;20202;-53
2021/04/10 02:49:46;;;;;;;12.20;5.10;;;4.60;99.90;;;;;;5112708;27;20209;-56
2021/04/10 02:52:13;;;;;;;8.37;4.80;;;4.60;99.90;;;;;;5106788;27;20197;-55
2021/04/10 02:54:47;;;;;;;10.10;4.20;;;4.60;99.90;;;;;;5094896;27;20212;-51
2021/04/10 02:57:18;;;;;;;6.23;4.00;;;4.60;99.90;;;;;;5109884;27;20596;-53
2021/04/10 02:59:49;;;;;;;10.33;4.00;;;4.60;99.90;;;;;;5101615;28;20930;-49
2021/04/10 03:02:16;;;;;;;9.40;4.30;;;4.60;99.90;;;;;;5112846;27;20211;-49
2021/04/10 03:04:46;;;;;;;8.80;3.63;;;4.50;99.90;;;;;;5120982;27;20205;-53
2021/04/10 03:07:14;;;;;;;7.80;3.47;;;4.50;99.90;;;;;;5118954;27;20425;-52
2021/04/10 03:09:43;;;;;;;8.93;2.93;;;4.50;99.90;;;;;;5093501;27;20220;-51
2021/04/10 03:12:12;;;;;;;10.83;2.90;;;4.50;99.90;;;;;;5107034;27;20197;-52
2021/04/10 03:14:39;;;;;;;11.20;3.27;;;4.50;99.90;;;;;;5103377;28;20547;-53
2021/04/10 03:17:06;;;;;;;7.43;3.07;;;4.50;99.90;;;;;;5100607;28;20209;-51
2021/04/10 03:19:36;;;;;;;6.50;2.67;;;4.50;99.90;;;;;;5114518;27;20218;-51
2021/04/10 03:22:02;;;;;;;7.93;2.47;;;4.50;99.90;;;;;;5104258;27;20287;-50
2021/04/10 03:24:30;;;;;;;9.00;2.87;;;4.50;99.90;;;;;;5092143;27;21164;-54
2021/04/10 03:26:57;;;;;;;12.23;2.90;;;4.50;99.90;;;;;;5109762;27;20204;-53
2021/04/10 03:29:29;;;;;;;12.47;2.93;;;4.50;99.90;;;;;;5102262;27;20199;-58
2021/04/10 03:31:59;;;;;;;8.93;2.73;;;4.50;99.90;;;;;;5101562;27;20622;-54
2021/04/10 03:34:26;;;;;;;9.97;3.23;;;4.40;99.90;;;;;;5102072;28;20193;-56
2021/04/10 03:36:57;;;;;;;13.47;2.90;;;4.40;99.90;;;;;;5101953;28;20221;-53
2021/04/10 03:39:23;;;;;;;8.53;2.47;;;4.40;99.90;;;;;;5101473;28;20204;-55
2021/04/10 03:41:56;;;;;;;9.73;2.60;;;4.40;99.90;;;;;;5102109;27;20204;-57
2021/04/10 03:44:25;;;;;;;10.93;2.10;;;4.40;99.90;;;;;;5120463;27;20281;-47
2021/04/10 03:46:51;;;;;;;6.10;2.27;;;4.40;99.90;;;;;;5103993;27;20216;-56
2021/04/10 03:49:18;;;;;;;6.83;1.97;;;4.40;99.90;;;;;;5101408;27;20283;-56
2021/04/10 03:51:44;;;;;;;9.90;2.23;;;4.40;99.90;;;;;;5109160;27;20248;-57
2021/04/10 03:54:12;;;;;;;6.33;1.90;;;4.30;99.90;;;;;;5108275;28;20304;-54
2021/04/10 03:56:42;;;;;;;6.07;2.10;;;4.40;99.90;;;;;;5096359;27;20215;-54
2021/04/10 03:59:17;;;;;;;6.83;1.93;;;4.30;99.90;;;;;;5105343;27;20840;-57
2021/04/10 04:01:51;;;;;;;7.70;2.40;;;4.30;99.90;;;;;;5107936;27;20573;-57
2021/04/10 04:04:18;;;;;;;9.03;2.57;;;4.30;99.90;;;;;;5099731;27;20310;-54
2021/04/10 04:06:44;;;;;;;9.83;2.80;;;4.30;99.90;;;;;;5102198;27;20282;-53
2021/04/10 04:09:10;;;;;;;11.80;2.90;;;4.30;99.90;;;;;;5099886;28;20258;-56
2021/04/10 04:11:37;;;;;;;10.23;2.20;;;4.30;99.90;;;;;;5094668;27;20208;-53
2021/04/10 04:14:03;;;;;;;5.37;2.10;;;4.30;99.90;;;;;;5110807;27;20201;-56
2021/04/10 04:16:29;;;;;;;12.97;2.30;;;4.30;99.90;;;;;;5100997;28;20221;-53
2021/04/10 04:18:56;;;;;;;11.37;2.20;;;4.30;99.90;;;;;;5112587;27;20207;-56
2021/04/10 04:21:22;;;;;;;10.07;2.50;;;4.30;99.90;;;;;;5097738;27;21044;-56
2021/04/10 04:23:48;;;;;;;5.50;1.73;;;4.30;99.90;;;;;;5113323;27;20669;-56
2021/04/10 04:26:14;;;;;;;5.37;1.70;;;4.30;99.90;;;;;;5089661;27;20450;-51
2021/04/10 04:28:41;;;;;;;5.83;1.70;;;4.30;99.90;;;;;;5115802;27;20204;-50
2021/04/10 04:31:07;;;;;;;9.60;1.77;;;4.30;99.90;;;;;;5107105;28;20281;-54
2021/04/10 04:33:33;;;;;;;6.10;1.80;;;4.30;99.90;;;;;;5103094;28;20343;-50
2021/04/10 04:36:00;;;;;;;9.63;1.90;;;4.40;99.90;;;;;;5102277;28;20304;-53
2021/04/10 04:38:26;;;;;;;6.77;2.30;;;4.30;99.90;;;;;;5111974;27;20665;-50
2021/04/10 04:40:52;;;;;;;5.93;2.00;;;4.30;99.90;;;;;;5116013;27;20320;-52
2021/04/10 04:43:18;;;;;;;10.17;2.47;;;4.30;99.90;;;;;;5097379;27;20205;-51
2021/04/10 04:45:45;;;;;;;8.30;2.30;;;4.30;99.90;;;;;;5121641;27;20288;-57
2021/04/10 04:48:11;;;;;;;7.90;1.90;;;4.30;99.90;;;;;;5104612;27;20619;-55
2021/04/10 04:50:37;;;;;;;9.07;2.03;;;4.30;99.90;;;;;;5119013;27;20217;-55
2021/04/10 04:53:04;;;;;;;8.40;1.83;;;4.20;99.90;;;;;;5102611;27;20197;-51
2021/04/10 04:55:30;;;;;;;6.67;1.63;;;4.20;99.90;;;;;;5105946;28;20340;-50
2021/04/10 04:57:56;;;;;;;7.57;2.30;;;4.20;99.90;;;;;;5115774;27;20233;-56
2021/04/10 05:00:23;;;;;;;5.93;2.30;;;4.20;99.90;;;;;;5105719;27;20780;-49
2021/04/10 05:02:51;;;;;;;10.90;2.03;;;4.20;99.90;;;;;;5117456;27;20201;-51
2021/04/10 05:05:17;;;;;;;7.27;2.10;;;4.20;99.90;;;;;;5104476;27;20272;-49
2021/04/10 05:07:43;;;;;;;6.83;1.50;;;4.20;99.90;;;;;;5107234;27;20228;-52
2021/04/10 05:10:10;;;;;;;7.40;2.07;;;4.20;99.90;;;;;;5115258;27;20224;-54
2021/04/10 05:12:36;;;;;;;7.33;1.70;;;4.20;99.90;;;;;;5126901;27;20199;-51
2021/04/10 05:15:03;;;;;;;8.50;1.70;;;4.20;99.90;;;;;;5100447;27;20230;-53
2021/04/10 05:17:29;;;;;;;8.40;2.57;;;4.30;99.90;;;;;;5119119;27;20200;-50
2021/04/10 05:19:56;;;;;;;9.83;2.03;;;4.30;99.90;;;;;;5112516;27;20286;-55
2021/04/10 05:22:22;;;;;;;6.77;1.90;;;4.30;99.90;;;;;;5114814;27;20293;-57
2021/04/10 05:24:48;;;;;;;4.30;1.87;;;4.30;99.90;;;;;;5103036;27;20205;-56
2021/04/10 05:27:15;;;;;;;5.97;1.90;;;4.30;99.90;;;;;;5103079;27;20838;-50
2021/04/10 05:29:42;;;;;;;10.87;2.53;;;4.30;99.90;;;;;;5099366;27;20229;-51
2021/04/10 05:32:08;;;;;;;9.13;2.47;;;4.20;99.90;;;;;;5106592;27;21026;-50
2021/04/10 05:34:34;;;;;;;7.57;1.90;;;4.20;99.90;;;;;;5115341;27;20201;-51
2021/04/10 05:37:01;;;;;;;7.50;1.87;;;4.30;99.90;;;;;;5113566;27;20289;-55
2021/04/10 05:39:27;;;;;;;7.20;1.93;;;4.20;99.90;;;;;;5106915;27;20668;-52
2021/04/10 05:41:53;;;;;;;4.03;2.10;;;4.20;99.90;;;;;;5115044;27;20608;-56
2021/04/10 05:44:20;;;;;;;10.00;2.37;;;4.30;99.90;;;;;;5115567;27;20212;-48
2021/04/10 05:46:46;;;;;;;6.43;2.20;;;4.30;99.90;;;;;;5102566;27;20196;-51
2021/04/10 05:49:12;;;;;;;9.67;2.27;;;4.40;99.90;;;;;;5111231;27;20199;-55
2021/04/10 05:51:38;;;;;;;6.00;2.37;;;4.40;99.90;;;;;;5107106;27;20684;-55
2021/04/10 05:54:08;;;;;;;6.33;2.03;;;4.40;99.90;;;;;;5103079;27;20225;-58
2021/04/10 05:56:34;;;;;;;7.90;2.03;;;4.40;99.90;;;;;;5110042;27;20730;-55
2021/04/10 05:59:00;;;;;;;10.10;2.03;;;4.40;99.90;;;;;;5109882;27;20318;-58
2021/04/10 06:01:27;;;;;;;7.83;1.83;;;4.40;99.90;;;;;;5100009;27;20222;-56
2021/04/10 06:03:55;;;;;;;5.57;1.90;;;4.40;99.90;;;;;;5111975;27;20192;-53
2021/04/10 06:06:21;;;;;;;5.77;1.93;;;4.50;99.90;;;;;;5112525;27;20618;-55
2021/04/10 06:08:47;;;;;;;5.63;2.77;;;4.50;99.90;;;;;;5110503;27;20576;-55
2021/04/10 06:11:14;;;;;;;6.13;1.67;;;4.50;99.90;;;;;;5110147;27;21774;-57
2021/04/10 06:13:40;;;;;;;10.77;3.03;;;4.50;99.90;;;;;;5104920;27;20273;-52
2021/04/10 06:16:07;;;;;;;7.00;2.10;;;4.50;99.90;;;;;;5105611;27;20204;-57
2021/04/10 06:18:33;;;;;;;8.53;2.10;;;4.50;99.90;;;;;;5098291;27;20253;-53
2021/04/10 06:20:59;;;;;;;3.97;1.80;;;4.50;99.90;;;;;;5111472;27;20875;-51
2021/04/10 06:23:26;;;;;;;6.73;2.40;;;4.60;99.90;;;;;;5103310;27;20201;-55
2021/04/10 06:25:52;;;;;;;9.73;2.53;;;4.60;99.90;;;;;;5116026;27;20404;-55
2021/04/10 06:28:19;;;;;;;7.50;1.73;;;4.60;99.90;;;;;;5104266;27;20210;-54
2021/04/10 06:30:45;;;;;;;9.70;2.10;;;4.60;99.90;;;;;;5102489;27;20224;-57
2021/04/10 06:33:11;;;;;;;8.10;2.10;;;4.60;99.90;;;;;;5107087;27;20197;-54
2021/04/10 06:35:38;;;;;;;7.07;1.57;;;4.60;99.90;;;;;;5107453;27;20208;-57
2021/04/10 06:38:04;;;;;;;8.90;1.80;;;4.70;99.90;;;;;;5107580;27;20211;-55
2021/04/10 06:40:31;;;;;;;7.60;1.40;;;4.80;99.90;;;;;;5099358;27;20695;-50
2021/04/10 06:42:58;;;;;;;8.83;1.90;;;4.80;99.90;;;;;;5109993;27;20678;-57
2021/04/10 06:45:25;;;;;;;9.77;2.03;;;4.90;99.90;;;;;;5108546;27;20197;-57
2021/04/10 06:47:54;;;;;;;3.80;1.20;;;4.90;99.90;;;;;;5099666;27;20204;-50
2021/04/10 06:50:21;;;;;;;11.83;2.10;;;4.90;99.90;;;;;;5108176;27;20221;-54
2021/04/10 06:52:48;;;;;;;10.77;1.73;;;5.00;99.90;;;;;;5111630;27;20185;-55
2021/04/10 06:55:16;;;;;;;7.00;2.30;;;5.00;99.90;;;;;;5116711;27;20680;-52
2021/04/10 06:57:52;;;;;;;7.17;1.50;;;5.00;99.90;;;;;;5104286;27;20235;-53
2021/04/10 07:00:20;;;;;;;4.83;1.53;;;5.10;99.90;;;;;;5108127;27;20213;-58
2021/04/10 07:02:48;;;;;;;7.33;1.60;;;5.10;99.90;;;;;;5090712;27;20695;-49
2021/04/10 07:05:15;;;;;;;4.83;1.43;;;5.10;99.90;;;;;;5116701;27;20219;-53
2021/04/10 07:07:43;;;;;;;6.33;1.03;;;5.20;99.90;;;;;;5098091;27;20285;-49
2021/04/10 07:10:11;;;;;;;7.13;1.53;;;5.20;99.90;;;;;;5113609;27;20212;-54
2021/04/10 07:12:37;;;;;;;7.23;1.30;;;5.20;99.90;;;;;;5115195;27;20199;-52
2021/04/10 07:15:05;;;;;;;5.57;1.57;;;5.20;99.90;;;;;;5114179;27;20329;-54
2021/04/10 07:17:31;;;;;;;5.97;1.40;;;5.30;99.90;;;;;;5106897;27;20207;-50
2021/04/10 07:19:58;;;;;;;2.57;1.10;;;5.30;99.90;;;;;;5105181;27;20677;-54
2021/04/10 07:22:25;;;;;;;7.80;1.33;;;5.30;99.90;;;;;;5107078;27;20291;-55
2021/04/10 07:24:52;;;;;;;6.83;1.37;;;5.30;99.90;;;;;;5115031;27;20240;-51
2021/04/10 07:27:20;;;;;;;9.20;1.20;;;5.40;99.90;;;;;;5105858;27;20839;-51
2021/04/10 07:29:48;;;;;;;4.70;1.10;;;5.40;99.90;;;;;;5107206;27;20248;-51
2021/04/10 07:32:26;;;;;;;6.97;1.53;;;5.50;99.90;;;;;;5112830;27;20238;-54
2021/04/10 07:34:52;;;;;;;8.87;1.90;;;5.50;99.90;;;;;;5100917;27;20292;-53
2021/04/10 07:37:37;;;;;;;8.00;1.37;;;5.50;99.90;;;;;;5109341;27;20927;-48
2021/04/10 07:40:06;;;;;;;6.20;1.23;;;5.60;99.90;;;;;;5102574;27;20229;-56
2021/04/10 07:42:34;;;;;;;6.83;1.20;;;5.60;99.90;;;;;;5107459;27;20834;-53
2021/04/10 07:45:01;;;;;;;6.97;1.50;;;5.60;99.90;;;;;;5110337;27;20668;-52
2021/04/10 07:47:35;;;;;;;10.63;1.63;;;5.70;99.90;;;;;;5124568;27;20253;-48
2021/04/10 07:50:19;;;;;;;9.17;1.03;;;5.70;99.90;;;;;;5103837;27;20469;-54
2021/04/10 07:52:46;;;;;;;6.93;1.33;;;5.80;99.90;;;;;;5116068;27;20284;-49
2021/04/10 07:55:38;;;;;;;11.07;1.47;;;5.80;99.90;;;;;;5104591;27;20573;-55
2021/04/10 07:58:24;;;;;;;6.23;1.23;;;5.90;99.90;;;;;;5106274;28;20585;-53
2021/04/10 08:00:51;;;;;;;3.33;0.93;;;5.90;99.90;;;;;;5105603;27;20263;-48
2021/04/10 08:03:30;;;;;;;5.30;1.10;;;5.90;99.90;;;;;;5105097;28;20201;-52
2021/04/10 08:06:11;;;;;;;4.23;1.00;;;6.00;99.90;;;;;;5105355;27;20208;-50
2021/04/10 08:08:51;;;;;;;5.27;1.60;;;6.00;99.90;;;;;;5120856;27;20669;-50
2021/04/10 08:11:28;;;;;;;7.23;1.10;;;6.20;99.90;;;;;;5109125;27;20228;-53
2021/04/10 08:13:55;;;;;;;10.47;1.13;;;6.30;99.90;;;;;;5118080;27;20743;-51
2021/04/10 08:16:23;;;;;;;8.70;1.20;;;6.40;99.90;;;;;;5101384;27;20212;-50
2021/04/10 08:18:51;;;;;;;7.13;1.23;;;6.40;99.90;;;;;;5114597;27;20200;-47
2021/04/10 08:21:19;;;;;;;4.33;1.10;;;6.50;99.90;;;;;;5101264;27;20302;-50
2021/04/10 08:23:46;;;;;;;11.67;1.77;;;6.50;99.90;;;;;;5123826;27;20662;-50
2021/04/10 08:26:13;;;;;;;5.23;1.40;;;6.60;99.90;;;;;;5103111;27;20657;-52
2021/04/10 08:28:41;;;;;;;7.07;1.47;;;6.50;99.90;;;;;;5119426;27;20205;-54
2021/04/10 08:31:07;;;;;;;7.10;1.17;;;6.60;99.90;;;;;;5111422;27;20269;-53
2021/04/10 08:33:34;;;;;;;5.17;1.00;;;6.70;99.90;;;;;;5110029;27;20926;-55
2021/04/10 08:36:04;;;;;;;2.10;0.93;;;6.70;99.90;;;;;;5110747;27;20276;-49
2021/04/10 08:38:31;;;;;;;5.07;0.67;;;6.70;99.90;;;;;;5107886;27;20232;-57
2021/04/10 08:41:02;;;;;;;4.63;1.27;;;6.80;99.90;;;;;;5120701;27;20216;-53
2021/04/10 08:43:30;;;;;;;6.70;1.00;;;6.80;99.90;;;;;;5104804;27;20228;-54
2021/04/10 08:45:58;;;;;;;1.93;0.93;;;6.80;99.90;;;;;;5115231;27;20199;-54
2021/04/10 08:48:26;;;;;;;5.37;1.33;;;6.90;99.90;;;;;;5108577;27;20295;-51
2021/04/10 08:50:56;;;;;;;4.30;1.00;;;7.00;99.90;;;;;;5112670;27;20270;-56
2021/04/10 08:53:25;;;;;;;5.03;1.50;;;6.90;99.90;;;;;;5099276;27;20212;-53
2021/04/10 08:55:52;;;;;;;3.47;1.00;;;6.90;99.90;;;;;;5113304;27;20206;-57
2021/04/10 08:58:21;;;;;;;3.93;1.53;;;6.90;99.90;;;;;;5099481;27;20862;-50
2021/04/10 09:00:54;;;;;;;6.03;1.30;;;6.80;99.90;;;;;;5120399;27;20220;-53
2021/04/10 09:03:20;;;;;;;2.87;0.83;;;6.80;99.90;;;;;;5102729;27;20284;-52
2021/04/10 09:05:48;;;;;;;6.37;1.03;;;6.90;99.90;;;;;;5119147;27;20209;-49
2021/04/10 09:08:25;;;;;;;4.33;0.90;;;6.90;99.90;;;;;;5098455;27;20196;-55
2021/04/10 09:10:54;;;;;;;5.87;1.10;;;6.90;99.90;;;;;;5118991;27;20219;-50
2021/04/10 09:13:40;;;;;;;8.00;1.87;;;7.00;99.90;;;;;;5105614;27;20289;-53
2021/04/10 09:16:34;;;;;;;4.30;1.20;;;7.00;99.90;;;;;;5116013;27;20211;-51
2021/04/10 09:19:04;;;;;;;5.30;1.33;;;7.00;99.60;;;;;;5102268;27;20212;-52
2021/04/10 09:21:39;;;;;;;7.43;1.33;;;7.00;99.90;;;;;;5103537;27;20236;-50
2021/04/10 09:24:28;;;;;;;4.20;1.17;;;7.20;99.90;;;;;;5097591;27;20642;-51
2021/04/10 09:27:05;;;;;;;5.87;0.83;;;7.20;98.80;;;;;;5114440;27;20192;-47
2021/04/10 09:29:43;;;;;;;7.70;1.23;;;7.20;99.90;;;;;;5111589;27;20204;-50
2021/04/10 09:32:10;;;;;;;3.40;1.10;;;7.30;99.90;;;;;;5121858;27;20192;-53
2021/04/10 09:34:54;;;;;;;5.40;1.37;;;7.20;99.90;;;;;;5099604;27;20946;-49
2021/04/10 09:38:01;;;;;;;6.27;1.00;;;7.30;99.90;;;;;;5102365;27;20240;-51
2021/04/10 09:40:49;;;;;;;3.90;0.87;;;7.30;99.10;;;;;;5108133;27;20235;-53
2021/04/10 09:43:19;;;;;;;4.07;0.90;;;7.30;98.20;;;;;;5110456;27;20276;-54
2021/04/10 09:45:47;;;;;;;6.27;1.10;;;7.40;99.90;;;;;;5111106;27;20200;-52
2021/04/10 09:48:21;;;;;;;2.90;0.90;;;7.40;99.90;;;;;;5110562;27;20197;-54
2021/04/10 09:51:16;;;;;;;6.53;1.10;;;7.40;99.30;;;;;;5109570;27;20251;-50
2021/04/10 09:53:47;;;;;;;3.57;0.87;;;7.40;99.30;;;;;;5119541;27;20204;-50
2021/04/10 09:56:14;;;;;;;7.80;1.23;;;7.50;99.90;;;;;;5110917;27;20712;-57
2021/04/10 09:58:46;;;;;;;5.03;1.00;;;7.60;99.50;;;;;;5112159;27;20579;-51
2021/04/10 10:01:16;;;;;;;3.60;0.90;;;7.60;99.70;;;;;;5103156;27;20224;-53
2021/04/10 10:03:45;;;;;;;4.37;1.03;;;7.70;99.10;;;;;;5103271;27;20228;-52
2021/04/10 10:06:19;;;;;;;4.63;1.03;;;7.80;98.20;;;;;;5113859;27;20200;-54
2021/04/10 10:08:46;;;;;;;2.40;0.77;;;7.80;98.00;;;;;;5103272;27;20603;-50
2021/04/10 10:11:13;;;;;;;4.70;1.03;;;7.90;98.10;;;;;;5113893;27;20216;-57
2021/04/10 10:13:39;;;;;;;4.70;1.20;;;8.00;97.90;;;;;;5097655;27;20694;-51
2021/04/10 10:16:07;;;;;;;2.37;1.03;;;8.20;98.70;;;;;;5116383;27;20210;-57
2021/04/10 10:18:35;;;;;;;4.50;1.17;;;8.20;97.40;;;;;;5114788;27;20281;-49
2021/04/10 10:21:05;;;;;;;5.23;1.10;;;8.20;96.80;;;;;;5101741;27;20221;-53
2021/04/10 10:23:33;;;;;;;4.30;1.20;;;8.10;95.60;;;;;;5116779;27;20272;-53
2021/04/10 10:26:08;;;;;;;4.90;1.20;;;8.00;95.70;;;;;;5111875;27;20208;-50
2021/04/10 10:28:36;;;;;;;4.97;0.80;;;7.80;94.70;;;;;;5108018;27;20223;-54
2021/04/10 10:31:07;;;;;;;3.83;1.10;;;7.70;95.20;;;;;;5105598;27;20307;-47
2021/04/10 10:33:34;;;;;;;3.93;0.90;;;7.70;94.40;;;;;;5106595;27;20207;-50
2021/04/10 10:36:01;;;;;;;2.37;0.50;;;7.70;95.20;;;;;;5108311;27;20235;-50
2021/04/10 10:38:33;;;;;;;2.50;1.10;;;7.80;94.90;;;;;;5105196;27;20193;-55
2021/04/10 10:41:00;;;;;;;2.33;0.80;;;7.80;92.10;;;;;;5101940;27;20308;-49
2021/04/10 10:43:27;;;;;;;2.97;0.77;;;7.70;92.60;;;;;;5104846;27;20600;-50
2021/04/10 10:45:55;;;;;;;5.47;0.90;;;7.80;92.90;;;;;;5095668;27;20213;-48
2021/04/10 10:48:24;;;;;;;6.63;1.70;;;7.70;92.60;;;;;;5109463;27;20189;-47
2021/04/10 10:50:52;;;;;;;1.80;0.90;;;7.60;92.10;;;;;;5107520;27;20713;-47
2021/04/10 10:53:21;;;;;;;6.60;1.50;;;7.70;91.90;;;;;;5110686;27;20514;-54
2021/04/10 10:55:59;;;;;;;4.32;1.33;;;8.00;89.30;;;;;;5110182;27;20441;-47
2021/04/10 10:58:25;;;;;;;3.70;1.30;;;8.30;85.80;;;;;;5107799;27;20278;-54
2021/04/10 11:00:52;;;;;;;3.83;0.90;;;8.20;88.70;;;;;;5096310;27;20796;-55
2021/04/10 11:03:20;;;;;;;3.57;1.20;;;8.20;90.00;;;;;;5111238;27;20216;-53
2021/04/10 11:05:48;;;;;;;2.83;1.17;;;8.40;91.40;;;;;;5111969;27;20205;-52
2021/04/10 11:08:16;;;;;;;3.33;0.70;;;8.60;89.80;;;;;;5124201;27;20204;-53
2021/04/10 11:10:43;;;;;;;3.27;0.90;;;8.60;88.00;;;;;;5101619;27;20320;-56
2021/04/10 11:13:11;;;;;;;4.40;1.03;;;8.60;86.40;;;;;;5104641;27;20696;-53
2021/04/10 11:15:38;;;;;;;2.40;0.83;;;8.60;87.40;;;;;;5093068;27;20213;-49
2021/04/10 11:18:05;;;;;;;2.90;0.90;;;8.60;84.50;;;;;;5111822;27;20650;-51
2021/04/10 11:20:33;;;;;;;6.23;1.17;;;8.60;80.40;;;;;;5098294;27;20223;-54
2021/04/10 11:23:04;;;;;;;3.80;1.00;;;8.60;82.40;;;;;;5111030;27;20224;-48
2021/04/10 11:25:46;;;;;;;4.67;1.20;;;8.70;83.80;;;;;;5104799;27;20189;-54
2021/04/10 11:28:26;;;;;;;2.67;0.90;;;8.70;78.80;;;;;;5104386;27;20198;-55
2021/04/10 11:31:05;;;;;;;4.00;0.90;;;8.60;76.10;;;;;;5094620;27;20216;-52
2021/04/10 11:33:33;;;;;;;2.07;0.80;;;8.70;83.20;;;;;;5100433;27;20280;-53
2021/04/10 11:35:59;;;;;;;3.80;1.10;;;8.80;85.70;;;;;;5100806;27;20209;-51
2021/04/10 11:38:25;;;;;;;3.77;0.80;;;8.80;86.20;;;;;;5100677;27;20201;-52
2021/04/10 11:40:52;;;;;;;1.57;0.70;;;8.80;84.40;;;;;;5105374;27;20216;-50
2021/04/10 11:43:18;;;;;;;4.27;0.80;;;8.70;85.40;;;;;;5109344;27;20925;-53
2021/04/10 11:45:47;;;;;;;3.47;1.13;;;8.60;84.70;;;;;;5096424;27;20196;-50
2021/04/10 11:48:15;;;;;;;6.93;0.90;;;8.50;84.10;;;;;;5101252;27;20789;-49
2021/04/10 11:50:44;;;;;;;1.73;1.00;;;8.40;81.70;;;;;;5103092;28;20216;-52
2021/04/10 11:53:16;;;;;;;5.40;0.60;;;8.40;75.80;;;;;;5104552;27;20205;-54
2021/04/10 11:55:43;;;;;;;4.03;1.27;;;8.30;74.80;;;;;;5112933;27;20201;-49
2021/04/10 11:58:11;;;;;;;2.93;1.20;;;8.30;76.70;;;;;;5101026;28;20195;-51
2021/04/10 12:00:37;;;;;;;3.20;0.70;;;8.30;78.00;;;;;;5103956;28;20225;-50
2021/04/10 12:03:08;;;;;;;2.83;1.07;;;8.40;78.30;;;;;;5101212;27;20393;-49
2021/04/10 12:05:40;;;;;;;3.83;0.93;;;8.50;77.40;;;;;;5114622;27;20282;-47
2021/04/10 12:08:08;;;;;;;5.50;1.00;;;8.60;77.40;;;;;;5108474;27;20204;-49
2021/04/10 12:10:37;;;;;;;2.20;0.70;;;8.80;77.50;;;;;;5114295;27;20220;-47
2021/04/10 12:13:03;;;;;;;2.60;1.07;;;8.90;76.60;;;;;;5112871;27;20373;-47
2021/04/10 12:15:32;;;;;;;2.97;0.87;;;9.10;75.80;;;;;;5118997;27;20208;-53
2021/04/10 12:17:59;;;;;;;2.70;0.87;;;9.10;76.00;;;;;;5096763;27;20208;-48
2021/04/10 12:20:26;;;;;;;2.93;0.80;;;9.30;72.10;;;;;;5105804;27;20217;-55
2021/04/10 12:22:53;;;;;;;3.10;1.17;;;9.20;70.30;;;;;;5101759;28;20197;-52
2021/04/10 12:25:19;;;;;;;6.30;1.13;;;9.20;70.50;;;;;;5114351;27;20218;-47
2021/04/10 12:27:45;;;;;;;4.47;1.30;;;9.30;69.30;;;;;;5110143;27;20196;-49
2021/04/10 12:30:14;;;;;;;4.10;0.60;;;9.40;68.90;;;;;;5100876;28;20232;-51
2021/04/10 12:32:41;;;;;;;3.93;0.93;;;9.40;68.40;;;;;;5101926;27;20284;-47
2021/04/10 12:35:09;;;;;;;2.20;0.83;;;9.50;69.30;;;;;;5112283;27;20271;-49
2021/04/10 12:37:35;;;;;;;1.80;0.50;;;9.60;68.70;;;;;;5104389;28;20217;-51
2021/04/10 12:40:03;;;;;;;3.23;1.17;;;9.60;67.80;;;;;;5099304;27;20291;-50
2021/04/10 12:42:29;;;;;;;3.10;1.10;;;9.60;70.40;;;;;;5115239;27;20204;-49
2021/04/10 12:44:55;;;;;;;4.13;0.90;;;9.70;69.00;;;;;;5117156;27;20275;-50
2021/04/10 12:47:22;;;;;;;3.23;0.80;;;9.80;68.50;;;;;;5097470;27;20639;-54
2021/04/10 12:49:49;;;;;;;2.17;0.77;;;9.90;64.90;;;;;;5102424;27;20299;-50
2021/04/10 12:52:15;;;;;;;2.37;0.70;;;9.80;62.90;;;;;;5101327;28;20200;-52
2021/04/10 12:54:42;;;;;;;1.63;1.00;;;9.90;63.80;;;;;;5095162;27;20205;-53
2021/04/10 12:57:08;;;;;;;1.03;0.70;;;10.00;62.30;;;;;;5099707;28;20237;-49
2021/04/10 12:59:35;;;;;;;1.43;0.70;;;10.10;66.90;;;;;;5115939;27;20228;-50
2021/04/10 13:02:01;;;;;;;2.17;0.70;;;10.30;65.80;;;;;;5122651;27;20200;-50
2021/04/10 13:04:29;;;;;;;2.23;0.60;;;10.30;64.20;;;;;;5115628;27;20572;-48
2021/04/10 13:06:56;;;;;;;5.13;0.90;;;10.20;60.60;;;;;;5112864;27;20246;-52